createdAt,value
2022-09-12T00:01:28.756Z,61.14
2022-09-12T00:03:58.408Z,62.55
2022-09-12T00:06:32.351Z,68.30
2022-09-12T00:09:01.924Z,67.96
2022-09-12T00:11:42.386Z,65.91
2022-09-12T00:14:11.095Z,64.45
2022-09-12T00:16:39.572Z,63.78
2022-09-12T00:19:07.757Z,61.34
2022-09-12T00:21:36.843Z,60.93
2022-09-12T00:24:05.010Z,60.33
2022-09-12T00:26:32.978Z,58.02
2022-09-12T00:29:01.436Z,56.56
2022-09-12T00:31:29.574Z,57.49
2022-09-12T00:33:58.357Z,59.30
2022-09-12T00:36:31.381Z,59.99
2022-09-12T00:38:59.263Z,59.97
2022-09-12T00:41:37.931Z,60.24
2022-09-12T00:44:10.181Z,60.76
2022-09-12T00:46:45.067Z,64.14
2022-09-12T00:49:18.711Z,68.67
2022-09-12T00:51:50.900Z,68.52
2022-09-12T00:54:19.736Z,64.73
2022-09-12T00:56:47.700Z,63.47
2022-09-12T00:59:20.583Z,62.13
2022-09-12T01:01:49.702Z,61.30
2022-09-12T01:04:18.315Z,60.14
2022-09-12T01:06:46.572Z,59.21
2022-09-12T01:09:20.051Z,56.73
2022-09-12T01:11:48.652Z,57.11
2022-09-12T01:14:18.822Z,58.63
2022-09-12T01:16:47.067Z,59.66
2022-09-12T01:19:32.093Z,60.72
2022-09-12T01:22:09.606Z,61.53
2022-09-12T01:24:42.471Z,61.17
2022-09-12T01:27:19.470Z,63.67
2022-09-12T01:30:08.348Z,69.14
2022-09-12T01:32:39.290Z,66.07
2022-09-12T01:35:21.446Z,63.23
2022-09-12T01:37:53.787Z,61.88
2022-09-12T01:40:24.010Z,60.23
2022-09-12T01:43:32.226Z,58.41
2022-09-12T01:46:20.257Z,57.08
2022-09-12T01:48:51.269Z,58.24
2022-09-12T01:51:22.021Z,59.39
2022-09-12T01:53:52.446Z,60.25
2022-09-12T01:56:26.450Z,60.94
2022-09-12T01:59:09.174Z,62.03
2022-09-12T02:01:53.525Z,64.18
2022-09-12T02:04:22.676Z,68.33
2022-09-12T02:07:10.450Z,65.78
2022-09-12T02:09:40.354Z,62.93
2022-09-12T02:12:09.078Z,61.05
2022-09-12T02:14:38.272Z,59.84
2022-09-12T02:17:17.260Z,57.70
2022-09-12T02:19:58.845Z,57.12
2022-09-12T02:22:27.321Z,58.31
2022-09-12T02:24:59.194Z,59.04
2022-09-12T02:27:33.358Z,60.11
2022-09-12T02:30:01.294Z,61.27
2022-09-12T02:32:35.075Z,61.75
2022-09-12T02:35:09.111Z,64.92
2022-09-12T02:37:38.868Z,67.89
2022-09-12T02:40:09.005Z,64.57
2022-09-12T02:42:37.405Z,62.14
2022-09-12T02:45:05.403Z,60.26
2022-09-12T02:47:48.239Z,57.79
2022-09-12T02:50:16.254Z,56.73
2022-09-12T02:52:44.154Z,58.14
2022-09-12T02:55:14.394Z,59.44
2022-09-12T02:57:44.587Z,60.60
2022-09-12T03:00:13.050Z,61.33
2022-09-12T03:02:50.739Z,62.07
2022-09-12T03:05:27.927Z,65.18
2022-09-12T03:08:28.855Z,67.55
2022-09-12T03:10:59.808Z,63.17
2022-09-12T03:13:36.920Z,60.71
2022-09-12T03:16:18.321Z,59.42
2022-09-12T03:18:50.551Z,56.80
2022-09-12T03:21:21.690Z,57.46
2022-09-12T03:23:52.696Z,58.80
2022-09-12T03:26:23.167Z,59.99
2022-09-12T03:28:51.062Z,61.16
2022-09-12T03:31:19.181Z,61.80
2022-09-12T03:33:48.660Z,64.12
2022-09-12T03:36:17.533Z,68.51
2022-09-12T03:38:45.489Z,65.63
2022-09-12T03:41:13.614Z,62.31
2022-09-12T03:43:41.744Z,60.74
2022-09-12T03:46:09.928Z,59.30
2022-09-12T03:48:41.316Z,56.78
2022-09-12T03:51:10.019Z,57.18
2022-09-12T03:53:38.096Z,58.57
2022-09-12T03:56:09.325Z,59.17
2022-09-12T03:58:37.381Z,59.47
2022-09-12T04:01:12.584Z,61.23
2022-09-12T04:03:44.209Z,64.40
2022-09-12T04:06:15.546Z,69.20
2022-09-12T04:08:46.840Z,67.79
2022-09-12T04:11:15.588Z,63.43
2022-09-12T04:13:46.240Z,60.75
2022-09-12T04:16:17.698Z,58.86
2022-09-12T04:18:46.627Z,56.82
2022-09-12T04:21:16.554Z,57.94
2022-09-12T04:23:44.499Z,58.22
2022-09-12T04:26:14.672Z,59.51
2022-09-12T04:28:42.803Z,60.95
2022-09-12T04:31:18.183Z,61.04
2022-09-12T04:33:47.340Z,61.64
2022-09-12T04:36:17.759Z,64.14
2022-09-12T04:38:47.913Z,69.58
2022-09-12T04:41:18.519Z,65.95
2022-09-12T04:43:46.789Z,62.76
2022-09-12T04:46:16.748Z,61.07
2022-09-12T04:48:44.978Z,59.77
2022-09-12T04:51:14.895Z,57.14
2022-09-12T04:53:43.288Z,57.09
2022-09-12T04:56:11.523Z,58.51
2022-09-12T04:58:39.622Z,59.45
2022-09-12T05:01:08.310Z,60.33
2022-09-12T05:03:40.669Z,61.46
2022-09-12T05:06:17.623Z,63.06
2022-09-12T05:08:45.708Z,67.92
2022-09-12T05:11:15.452Z,65.40
2022-09-12T05:13:43.409Z,62.54
2022-09-12T05:16:13.010Z,60.16
2022-09-12T05:18:41.181Z,57.21
2022-09-12T05:21:09.593Z,57.63
2022-09-12T05:23:39.733Z,58.20
2022-09-12T05:26:12.286Z,59.42
2022-09-12T05:28:40.140Z,59.49
2022-09-12T05:31:16.754Z,59.65
2022-09-12T05:33:45.913Z,61.56
2022-09-12T05:36:15.402Z,62.89
2022-09-12T05:38:43.437Z,68.33
2022-09-12T05:41:17.483Z,67.42
2022-09-12T05:43:47.793Z,63.57
2022-09-12T05:46:18.987Z,60.73
2022-09-12T05:48:47.861Z,58.15
2022-09-12T05:51:20.564Z,56.23
2022-09-12T05:53:51.621Z,56.62
2022-09-12T05:56:21.161Z,58.09
2022-09-12T05:58:52.812Z,59.33
2022-09-12T06:01:21.557Z,60.25
2022-09-12T06:03:50.974Z,60.90
2022-09-12T06:06:19.763Z,61.15
2022-09-12T06:08:49.506Z,60.75
2022-09-12T06:11:20.551Z,62.36
2022-09-12T06:13:52.610Z,66.64
2022-09-12T06:16:28.396Z,65.45
2022-09-12T06:19:01.037Z,62.72
2022-09-12T06:21:30.823Z,60.28
2022-09-12T06:23:59.224Z,56.50
2022-09-12T06:26:27.989Z,55.76
2022-09-12T06:28:56.312Z,56.69
2022-09-12T06:31:26.148Z,57.61
2022-09-12T06:33:59.842Z,58.46
2022-09-12T06:36:29.918Z,59.85
2022-09-12T06:39:03.970Z,61.26
2022-09-12T06:41:32.349Z,63.18
2022-09-12T06:44:00.738Z,65.90
2022-09-12T06:46:28.898Z,61.22
2022-09-12T06:48:57.219Z,57.68
2022-09-12T06:51:29.253Z,54.96
2022-09-12T06:53:57.218Z,54.48
2022-09-12T06:56:28.843Z,55.21
2022-09-12T06:58:57.687Z,55.97
2022-09-12T07:01:27.451Z,55.72
2022-09-12T07:03:56.587Z,56.47
2022-09-12T07:06:30.113Z,57.34
2022-09-12T07:08:59.892Z,57.71
2022-09-12T07:11:31.852Z,57.88
2022-09-12T07:14:01.055Z,58.18
2022-09-12T07:16:30.386Z,58.25
2022-09-12T07:18:59.472Z,58.95
2022-09-12T07:21:30.027Z,59.14
2022-09-12T07:23:58.217Z,60.50
2022-09-12T07:26:29.239Z,63.21
2022-09-12T07:29:19.072Z,61.63
2022-09-12T07:31:50.429Z,55.82
2022-09-12T07:34:18.456Z,55.35
2022-09-12T07:36:46.386Z,55.59
2022-09-12T07:39:16.527Z,56.15
2022-09-12T07:41:44.577Z,58.39
2022-09-12T07:44:16.100Z,57.72
2022-09-12T07:46:44.011Z,59.14
2022-09-12T07:49:12.186Z,59.31
2022-09-12T07:51:40.903Z,58.66
2022-09-12T07:54:09.348Z,58.25
2022-09-12T07:56:39.591Z,58.75
2022-09-12T07:59:08.867Z,59.75
2022-09-12T08:01:39.494Z,59.69
2022-09-12T08:04:07.700Z,60.08
2022-09-12T08:06:36.498Z,59.17
2022-09-12T08:09:08.718Z,60.26
2022-09-12T08:11:36.652Z,59.75
2022-09-12T08:14:05.906Z,60.42
2022-09-12T08:16:34.768Z,61.22
2022-09-12T08:19:04.754Z,60.94
2022-09-12T08:21:34.780Z,61.06
2022-09-12T08:24:04.045Z,60.91
2022-09-12T08:26:33.969Z,60.23
2022-09-12T08:29:04.577Z,60.41
2022-09-12T08:31:36.605Z,60.64
2022-09-12T08:34:08.362Z,59.21
2022-09-12T08:36:36.395Z,58.73
2022-09-12T08:39:06.063Z,58.00
2022-09-12T08:41:37.772Z,58.72
2022-09-12T08:44:09.362Z,59.06
2022-09-12T08:46:46.074Z,59.53
2022-09-12T08:49:15.136Z,58.62
2022-09-12T08:51:43.063Z,58.83
2022-09-12T08:54:18.101Z,57.86
2022-09-12T08:56:48.003Z,57.24
2022-09-12T08:59:16.796Z,57.61
2022-09-12T09:01:45.632Z,57.38
2022-09-12T09:04:25.768Z,57.29
2022-09-12T09:07:04.762Z,56.61
2022-09-12T09:09:44.815Z,57.08
2022-09-12T09:12:25.082Z,56.22
2022-09-12T09:14:58.254Z,55.33
2022-09-12T09:17:28.104Z,54.53
2022-09-12T09:20:13.608Z,55.14
2022-09-12T09:22:43.887Z,54.47
2022-09-12T09:25:23.033Z,53.73
2022-09-12T09:28:15.537Z,53.84
2022-09-12T09:30:46.401Z,51.15
2022-09-12T09:33:22.719Z,50.96
2022-09-12T09:36:00.607Z,50.74
2022-09-12T09:38:37.872Z,50.42
2022-09-12T09:41:12.108Z,48.17
2022-09-12T09:43:40.129Z,49.38
2022-09-12T09:46:08.124Z,50.31
2022-09-12T09:48:36.635Z,50.09
2022-09-12T09:51:08.152Z,50.34
2022-09-12T09:53:39.075Z,47.54
2022-09-12T09:56:28.121Z,47.87
2022-09-12T09:58:56.269Z,46.55
2022-09-12T10:01:25.214Z,45.51
2022-09-12T10:03:55.483Z,46.72
2022-09-12T10:06:25.521Z,47.28
2022-09-12T10:09:05.280Z,44.52
2022-09-12T10:11:33.866Z,44.27
2022-09-12T10:14:03.167Z,45.50
2022-09-12T10:16:48.293Z,46.09
2022-09-12T10:19:43.293Z,45.12
2022-09-12T10:22:15.556Z,45.23
2022-09-12T10:24:47.072Z,42.80
2022-09-12T10:27:24.404Z,43.08
2022-09-12T10:30:15.642Z,43.59
2022-09-12T10:32:45.455Z,43.86
2022-09-12T10:35:21.317Z,44.40
2022-09-12T10:37:58.882Z,45.05
2022-09-12T10:40:32.908Z,45.18
2022-09-12T10:43:02.971Z,45.44
2022-09-12T10:45:32.331Z,45.52
2022-09-12T10:48:07.648Z,44.63
2022-09-12T10:50:42.042Z,44.06
2022-09-12T10:53:13.414Z,43.84
2022-09-12T10:55:42.077Z,43.75
2022-09-12T10:58:43.308Z,44.01
2022-09-12T11:01:17.877Z,43.67
2022-09-12T11:03:50.483Z,42.92
2022-09-12T11:06:22.067Z,42.69
2022-09-12T11:09:00.851Z,42.99
2022-09-12T11:11:49.263Z,42.74
2022-09-12T11:14:17.530Z,43.25
2022-09-12T11:16:49.343Z,43.65
2022-09-12T11:19:35.670Z,43.70
2022-09-12T11:22:05.779Z,43.31
2022-09-12T11:24:37.335Z,44.24
2022-09-12T11:27:14.844Z,44.35
2022-09-12T11:29:48.711Z,44.05
2022-09-12T11:32:36.489Z,44.40
2022-09-12T11:35:15.134Z,43.75
2022-09-12T11:38:00.771Z,44.22
2022-09-12T11:40:45.130Z,44.18
2022-09-12T11:43:22.279Z,44.53
2022-09-12T11:45:50.677Z,44.74
2022-09-12T11:48:26.759Z,44.07
2022-09-12T11:50:54.787Z,43.86
2022-09-12T11:53:26.320Z,43.55
2022-09-12T11:56:03.029Z,42.50
2022-09-12T11:58:30.986Z,42.55
2022-09-12T12:01:11.648Z,41.27
2022-09-12T12:03:43.970Z,41.39
2022-09-12T12:06:23.827Z,40.53
2022-09-12T12:08:54.022Z,39.88
2022-09-12T12:11:42.867Z,40.57
2022-09-12T12:14:24.181Z,39.93
2022-09-12T12:16:52.518Z,39.99
2022-09-12T12:19:25.199Z,38.08
2022-09-12T12:21:53.351Z,38.58
2022-09-12T12:24:25.892Z,38.16
2022-09-12T12:26:58.813Z,37.85
2022-09-12T12:29:27.239Z,37.72
2022-09-12T12:32:05.091Z,38.21
2022-09-12T12:34:36.491Z,37.41
2022-09-12T12:37:21.005Z,37.66
2022-09-12T12:39:55.868Z,37.78
2022-09-12T12:42:32.642Z,38.32
2022-09-12T12:45:11.808Z,38.86
2022-09-12T12:47:39.854Z,39.46
2022-09-12T12:50:20.796Z,39.99
2022-09-12T12:52:54.274Z,40.56
2022-09-12T12:55:31.369Z,40.80
2022-09-12T12:57:59.608Z,41.46
2022-09-12T13:00:39.706Z,42.00
2022-09-12T13:03:08.305Z,42.12
2022-09-12T13:05:47.989Z,42.57
2022-09-12T13:08:18.787Z,42.78
2022-09-12T13:10:53.698Z,42.89
2022-09-12T13:13:26.971Z,43.38
2022-09-12T13:15:56.461Z,43.52
2022-09-12T13:18:34.610Z,43.89
2022-09-12T13:21:02.600Z,43.82
2022-09-12T13:23:31.455Z,44.03
2022-09-12T13:26:01.550Z,44.01
2022-09-12T13:28:30.169Z,43.84
2022-09-12T13:31:12.577Z,44.06
2022-09-12T13:33:41.989Z,43.92
2022-09-12T13:36:10.352Z,44.17
2022-09-12T13:38:50.758Z,44.47
2022-09-12T13:41:37.315Z,44.53
2022-09-12T13:44:07.803Z,44.60
2022-09-12T13:46:38.915Z,44.74
2022-09-12T13:49:26.403Z,44.81
2022-09-12T13:51:58.616Z,44.79
2022-09-12T13:54:27.359Z,45.06
2022-09-12T13:56:58.619Z,45.29
2022-09-12T13:59:26.437Z,44.85
2022-09-12T14:01:54.306Z,43.51
2022-09-12T14:04:43.292Z,41.94
2022-09-12T14:07:20.393Z,41.58
2022-09-12T14:09:55.408Z,41.36
2022-09-12T14:12:34.942Z,41.53
2022-09-12T14:15:04.261Z,42.15
2022-09-12T14:17:33.556Z,41.63
2022-09-12T14:20:04.239Z,42.11
2022-09-12T14:22:33.098Z,42.06
2022-09-12T14:25:01.016Z,41.83
2022-09-12T14:27:30.446Z,41.72
2022-09-12T14:30:02.423Z,41.69
2022-09-12T14:32:31.199Z,41.93
2022-09-12T14:35:06.273Z,42.55
2022-09-12T14:37:34.728Z,43.19
2022-09-12T14:40:02.786Z,43.67
2022-09-12T14:42:31.289Z,43.79
2022-09-12T14:45:03.786Z,43.97
2022-09-12T14:47:35.187Z,44.21
2022-09-12T14:50:03.339Z,44.58
2022-09-12T14:52:35.388Z,44.86
2022-09-12T14:55:16.204Z,45.10
2022-09-12T14:57:46.777Z,45.42
2022-09-12T15:00:15.208Z,45.32
2022-09-12T15:02:43.504Z,45.52
2022-09-12T15:05:11.722Z,45.45
2022-09-12T15:07:46.507Z,45.59
2022-09-12T15:10:14.911Z,45.96
2022-09-12T15:12:45.934Z,46.33
2022-09-12T15:15:15.059Z,46.50
2022-09-12T15:17:43.639Z,46.61
2022-09-12T15:20:13.926Z,46.77
2022-09-12T15:22:42.109Z,46.87
2022-09-12T15:25:10.578Z,47.36
2022-09-12T15:27:43.311Z,47.91
2022-09-12T15:30:13.381Z,48.08
2022-09-12T15:32:42.582Z,48.28
2022-09-12T15:35:15.850Z,48.89
2022-09-12T15:37:46.182Z,49.55
2022-09-12T15:40:15.101Z,49.32
2022-09-12T15:42:44.319Z,49.44
2022-09-12T15:45:18.068Z,49.50
2022-09-12T15:47:48.494Z,50.64
2022-09-12T15:50:16.580Z,51.49
2022-09-12T15:52:44.696Z,51.16
2022-09-12T15:55:20.483Z,50.94
2022-09-12T15:57:48.756Z,51.24
2022-09-12T16:00:17.718Z,51.44
2022-09-12T16:02:46.763Z,52.05
2022-09-12T16:05:21.527Z,52.35
2022-09-12T16:07:51.000Z,52.77
2022-09-12T16:10:20.096Z,53.25
2022-09-12T16:12:48.391Z,53.45
2022-09-12T16:15:20.323Z,53.56
2022-09-12T16:17:49.251Z,53.43
2022-09-12T16:20:19.057Z,53.99
2022-09-12T16:22:47.252Z,54.32
2022-09-12T16:25:17.589Z,54.32
2022-09-12T16:27:49.318Z,54.33
2022-09-12T16:30:17.655Z,54.47
2022-09-12T16:32:46.487Z,54.92
2022-09-12T16:35:15.462Z,55.58
2022-09-12T16:37:43.482Z,55.76
2022-09-12T16:40:15.388Z,56.69
2022-09-12T16:42:44.387Z,58.77
2022-09-12T16:45:12.519Z,59.98
2022-09-12T16:47:40.474Z,60.20
2022-09-12T16:50:08.526Z,60.83
2022-09-12T16:52:36.612Z,61.21
2022-09-12T16:55:04.749Z,61.69
2022-09-12T16:57:33.290Z,62.37
2022-09-12T17:00:01.302Z,67.92
2022-09-12T17:02:33.480Z,67.91
2022-09-12T17:05:02.054Z,63.46
2022-09-12T17:07:30.145Z,60.76
2022-09-12T17:10:01.202Z,58.25
2022-09-12T17:12:31.426Z,55.96
2022-09-12T17:15:04.278Z,56.84
2022-09-12T17:17:32.143Z,57.72
2022-09-12T17:20:01.253Z,58.22
2022-09-12T17:22:29.616Z,58.75
2022-09-12T17:24:57.749Z,59.44
2022-09-12T17:27:25.694Z,60.26
2022-09-12T17:29:55.805Z,60.78
2022-09-12T17:32:24.347Z,60.76
2022-09-12T17:34:54.350Z,60.42
2022-09-12T17:37:22.200Z,60.42
2022-09-12T17:39:51.439Z,61.30
2022-09-12T17:42:20.854Z,61.93
2022-09-12T17:44:53.122Z,62.29
2022-09-12T17:47:21.260Z,65.51
2022-09-12T17:49:51.071Z,68.10
2022-09-12T17:52:19.086Z,63.54
2022-09-12T17:54:47.089Z,60.52
2022-09-12T17:57:15.777Z,58.02
2022-09-12T17:59:45.744Z,56.05
2022-09-12T18:02:16.771Z,56.78
2022-09-12T18:04:48.880Z,57.60
2022-09-12T18:07:19.297Z,58.72
2022-09-12T18:09:50.647Z,59.62
2022-09-12T18:12:21.950Z,60.19
2022-09-12T18:14:54.098Z,60.74
2022-09-12T18:17:31.213Z,61.27
2022-09-12T18:19:59.294Z,61.81
2022-09-12T18:22:28.781Z,62.35
2022-09-12T18:24:57.527Z,67.66
2022-09-12T18:27:27.476Z,66.73
2022-09-12T18:30:19.634Z,62.60
2022-09-12T18:32:44.794Z,59.22
2022-09-12T18:35:49.798Z,55.95
2022-09-12T18:38:21.098Z,56.53
2022-09-12T18:41:01.092Z,57.26
2022-09-12T18:43:38.681Z,58.56
2022-09-12T18:46:10.046Z,59.77
2022-09-12T18:48:41.016Z,60.34
2022-09-12T18:51:19.539Z,61.26
2022-09-12T18:53:53.759Z,61.64
2022-09-12T18:56:23.517Z,62.67
2022-09-12T18:58:59.545Z,67.85
2022-09-12T19:01:29.778Z,65.63
2022-09-12T19:03:58.183Z,62.61
2022-09-12T19:06:36.961Z,60.89
2022-09-12T19:09:08.195Z,58.55
2022-09-12T19:11:49.130Z,56.60
2022-09-12T19:14:42.855Z,57.29
2022-09-12T19:17:15.766Z,58.16
2022-09-12T19:19:49.518Z,59.11
2022-09-12T19:22:28.314Z,59.74
2022-09-12T19:25:03.177Z,60.36
2022-09-12T19:27:31.443Z,60.62
2022-09-12T19:30:03.996Z,61.34
2022-09-12T19:32:35.810Z,61.91
2022-09-12T19:35:05.800Z,62.65
2022-09-12T19:37:37.728Z,68.86
2022-09-12T19:40:11.214Z,66.64
2022-09-12T19:42:39.533Z,62.15
2022-09-12T19:45:11.241Z,59.76
2022-09-12T19:47:40.027Z,56.41
2022-09-12T19:50:12.631Z,55.78
2022-09-12T19:52:44.293Z,56.96
2022-09-12T19:55:27.460Z,58.38
2022-09-12T19:57:55.607Z,59.36
2022-09-12T20:00:31.664Z,60.38
2022-09-12T20:03:04.024Z,60.88
2022-09-12T20:05:32.601Z,61.52
2022-09-12T20:08:03.988Z,62.38
2022-09-12T20:10:32.245Z,67.99
2022-09-12T20:13:05.541Z,65.29
2022-09-12T20:15:36.015Z,60.93
2022-09-12T20:18:04.119Z,56.87
2022-09-12T20:20:37.657Z,55.77
2022-09-12T20:23:07.472Z,56.77
2022-09-12T20:25:37.780Z,57.94
2022-09-12T20:28:08.365Z,58.64
2022-09-12T20:30:36.744Z,59.45
2022-09-12T20:33:04.958Z,60.32
2022-09-12T20:35:34.165Z,61.00
2022-09-12T20:38:02.054Z,61.48
2022-09-12T20:40:36.014Z,61.59
2022-09-12T20:43:04.404Z,61.76
2022-09-12T20:45:40.339Z,62.12
2022-09-12T20:48:25.552Z,65.65
2022-09-12T20:54:25.596Z,61.58
2022-09-12T21:01:20.895Z,56.11
2022-09-12T21:03:50.186Z,56.81
2022-09-12T21:06:18.603Z,57.84
2022-09-12T21:08:46.924Z,58.80
2022-09-12T21:11:19.116Z,59.40
2022-09-12T21:13:47.770Z,60.24
2022-09-12T21:16:21.447Z,60.82
2022-09-12T21:19:28.190Z,61.07
2022-09-12T21:22:00.529Z,61.67
2022-09-12T21:27:56.340Z,67.94
2022-09-12T21:30:24.379Z,62.83
2022-09-12T21:32:52.529Z,59.92
2022-09-12T21:35:21.501Z,56.58
2022-09-12T21:37:51.271Z,56.39
2022-09-12T21:40:19.459Z,56.90
2022-09-12T21:42:51.426Z,58.01
2022-09-12T21:45:19.434Z,60.41
2022-09-12T21:47:47.296Z,61.78
2022-09-12T21:50:15.250Z,61.69
2022-09-12T21:52:43.213Z,61.45
2022-09-12T21:55:12.138Z,61.53
2022-09-12T21:57:43.105Z,63.30
2022-09-12T22:00:18.319Z,68.48
2022-09-12T22:02:48.765Z,65.15
2022-09-12T22:05:20.081Z,62.51
2022-09-12T22:07:48.574Z,60.42
2022-09-12T22:10:16.741Z,58.49
2022-09-12T22:13:09.580Z,58.74
2022-09-12T22:15:40.861Z,59.47
2022-09-12T22:18:09.208Z,60.91
2022-09-12T22:20:40.041Z,62.14
2022-09-12T22:23:27.133Z,66.20
2022-09-12T22:30:23.703Z,57.22
2022-09-12T22:32:53.105Z,55.79
2022-09-12T22:35:21.064Z,56.43
2022-09-12T22:37:49.962Z,57.56
2022-09-12T22:40:17.975Z,58.13
2022-09-12T22:42:46.078Z,58.63
2022-09-12T22:45:14.308Z,58.98
2022-09-12T22:47:42.211Z,59.59
2022-09-12T22:50:09.991Z,60.32
2022-09-12T22:52:37.771Z,61.40
2022-09-12T22:55:06.785Z,62.05
2022-09-12T22:57:34.788Z,62.40
2022-09-12T23:00:03.879Z,68.20
2022-09-12T23:02:31.776Z,67.42
2022-09-12T23:04:59.814Z,62.56
2022-09-12T23:07:27.608Z,58.79
2022-09-12T23:09:57.173Z,55.15
2022-09-12T23:12:28.190Z,55.56
2022-09-12T23:14:55.894Z,56.39
2022-09-12T23:17:24.059Z,57.75
2022-09-12T23:19:52.874Z,58.65
2022-09-12T23:22:21.110Z,58.83
2022-09-12T23:24:48.871Z,59.00
2022-09-12T23:27:16.830Z,59.48
2022-09-12T23:29:45.794Z,59.96
2022-09-12T23:32:13.588Z,60.26
2022-09-12T23:34:41.303Z,60.96
2022-09-12T23:37:09.104Z,61.82
2022-09-12T23:39:36.878Z,61.87
2022-09-12T23:42:05.730Z,62.14
2022-09-12T23:44:33.687Z,62.85
2022-09-12T23:47:04.051Z,70.06
2022-09-12T23:49:31.878Z,66.85
2022-09-12T23:51:59.605Z,62.18
2022-09-12T23:54:27.405Z,58.24
2022-09-12T23:56:55.639Z,55.24
2022-09-12T23:59:26.086Z,55.99
